Mustafa Sofuoglu — TCOJ7 — position and weather

sailwx.info

Track history (hours):
 
Tides and Currents Weather Stations Pressure Air Temp Water Temp Dewpoint Dewpoint Depression Visibility Wind Speed Wind Dir Waves Ship Positions

Mustafa Sofuoglu

Last reported at 2016-Apr-20 15:33 UTC. Time now 2016-Apr-30 13:09 UTC.
Position N 43°55' E 035°50'.
Warning: this ship's position is 9 days out of date.

Length 106 m; draft 7 m.

Type: Cargo ship. MMSI: 271000831.

Date/timePositionNaut miles runAvg speedWind from/ knotsBaromVisibWave heightAir tempDewpointWater temp
2016-Apr-20 15:33N 43°55' E 035°50'1212.0
2016-Apr-20 14:33N 43°50' E 036°05'1211.8
2016-Apr-20 13:33N 43°45' E 036°20'1212.1
2016-Apr-20 12:33N 43°40' E 036°35'1212.5
2016-Apr-20 11:33N 43°35' E 036°51'1212.4
2016-Apr-20 10:33N 43°30' E 037°06'1212.3
2016-Apr-20 09:33N 43°25' E 037°22'1512.2
2016-Apr-20 08:21N 43°19' E 037°41'1512.7
2016-Apr-20 07:09N 43°13' E 037°60'812.9
2016-Apr-20 06:33N 43°10' E 038°09'1413.2
2016-Apr-20 05:31N 43°04' E 038°26'  
Track history (hours):
 
Tides and Currents Weather Stations Pressure Air Temp Water Temp Dewpoint Dewpoint Depression Visibility Wind Speed Wind Dir Waves Ship Positions

Mustafa Sofuoglu

Last reported at 2016-Apr-20 15:33 UTC. Time now 2016-Apr-30 13:09 UTC.
Position N 43°55' E 035°50'.
Warning: this ship's position is 9 days out of date.

Length 106 m; draft 7 m.

Type: Cargo ship. MMSI: 271000831.

Date/timePositionNaut miles runAvg speedWind from/ knotsBaromVisibWave heightAir tempDewpointWater temp
2016-Apr-20 15:33N 43°55' E 035°50'1212.0
2016-Apr-20 14:33N 43°50' E 036°05'1211.8
2016-Apr-20 13:33N 43°45' E 036°20'1212.1
2016-Apr-20 12:33N 43°40' E 036°35'1212.5
2016-Apr-20 11:33N 43°35' E 036°51'1212.4
2016-Apr-20 10:33N 43°30' E 037°06'1212.3
2016-Apr-20 09:33N 43°25' E 037°22'1512.2
2016-Apr-20 08:21N 43°19' E 037°41'1512.7
2016-Apr-20 07:09N 43°13' E 037°60'812.9
2016-Apr-20 06:33N 43°10' E 038°09'1413.2
2016-Apr-20 05:31N 43°04' E 038°26'  

Dump ship's entire track history